Time,TemperatureF,DewpointF,PressureIn,WindDirection,WindDirectionDegrees,WindSpeedMPH,WindSpeedGustMPH,Humidity,HourlyPrecipIn,Conditions,Clouds,dailyrainin,SoftwareType,DateUTC
2013-02-01 00:00:00,11.7,8.8,30.02,WNW,293,12.0,12.0,88,0.00,,,0.00,Wunderground v.1.15,2013-02-01 05:00:00,
2013-02-01 00:05:00,11.6,8.7,30.02,WNW,291,11.0,12.0,88,0.00,,,0.00,Wunderground v.1.15,2013-02-01 05:05:00,
2013-02-01 00:10:00,11.5,8.6,30.02,WNW,287,10.0,13.0,88,0.00,,,0.00,Wunderground v.1.15,2013-02-01 05:10:00,
2013-02-01 00:15:00,11.5,8.6,30.02,West,263,10.0,13.0,88,0.00,,,0.00,Wunderground v.1.15,2013-02-01 05:15:00,
2013-02-01 00:25:00,11.5,8.4,30.03,West,271,11.0,13.0,87,0.00,,,0.00,Wunderground v.1.15,2013-02-01 05:25:00,
2013-02-01 00:30:00,11.4,8.5,30.03,WNW,301,10.0,11.0,88,0.00,,,0.00,Wunderground v.1.15,2013-02-01 05:30:00,
2013-02-01 00:35:00,11.3,8.4,30.03,WNW,295,9.0,11.0,88,0.00,,,0.00,Wunderground v.1.15,2013-02-01 05:35:00,
2013-02-01 00:40:00,11.2,8.3,30.03,WNW,295,9.0,11.0,88,0.00,,,0.00,Wunderground v.1.15,2013-02-01 05:40:00,
2013-02-01 00:45:00,11.1,8.2,30.04,West,263,10.0,11.0,88,0.00,,,0.00,Wunderground v.1.15,2013-02-01 05:45:00,
2013-02-01 00:55:00,11.1,8.0,30.04,WNW,298,9.0,10.0,87,0.00,,,0.00,Wunderground v.1.15,2013-02-01 05:55:00,
2013-02-01 01:00:00,11.0,8.1,30.04,WNW,288,9.0,10.0,88,0.00,,,0.00,Wunderground v.1.15,2013-02-01 06:00:00,
2013-02-01 01:10:00,11.0,8.1,30.05,West,278,9.0,9.0,88,0.00,,,0.00,Wunderground v.1.15,2013-02-01 06:10:00,
2013-02-01 01:15:00,10.9,8.0,30.05,West,276,8.0,10.0,88,0.00,,,0.00,Wunderground v.1.15,2013-02-01 06:15:00,
2013-02-01 01:20:00,11.0,8.1,30.05,WNW,297,8.0,13.0,88,0.00,,,0.00,Wunderground v.1.15,2013-02-01 06:20:00,
2013-02-01 01:30:00,11.0,8.1,30.05,WNW,295,10.0,13.0,88,0.00,,,0.00,Wunderground v.1.15,2013-02-01 06:30:00,
2013-02-01 01:35:00,11.0,8.1,30.06,West,264,10.0,13.0,88,0.00,,,0.00,Wunderground v.1.15,2013-02-01 06:35:00,
2013-02-01 01:40:00,11.0,8.1,30.06,West,259,9.0,9.0,88,0.00,,,0.00,Wunderground v.1.15,2013-02-01 06:40:00,
2013-02-01 01:45:00,11.0,8.1,30.06,SW,229,8.0,9.0,88,0.00,,,0.00,Wunderground v.1.15,2013-02-01 06:45:00,
2013-02-01 01:50:00,10.9,8.0,30.06,SW,222,8.0,9.0,88,0.00,,,0.00,Wunderground v.1.15,2013-02-01 06:50:00,
2013-02-01 02:00:00,11.0,8.1,30.07,WSW,248,8.0,8.0,88,0.00,,,0.00,Wunderground v.1.15,2013-02-01 07:00:00,
2013-02-01 02:10:00,11.0,8.4,30.07,WNW,287,8.0,8.0,89,0.00,,,0.00,Wunderground v.1.15,2013-02-01 07:10:00,
2013-02-01 02:15:00,11.0,8.4,30.08,West,278,8.0,8.0,89,0.00,,,0.00,Wunderground v.1.15,2013-02-01 07:15:00,
2013-02-01 02:20:00,11.0,8.1,30.08,WNW,295,8.0,14.0,88,0.00,,,0.00,Wunderground v.1.15,2013-02-01 07:20:00,
2013-02-01 02:25:00,11.1,8.2,30.08,NW,316,9.0,14.0,88,0.00,,,0.00,Wunderground v.1.15,2013-02-01 07:25:00,
2013-02-01 02:30:00,11.1,8.2,30.08,West,278,8.0,8.0,88,0.00,,,0.00,Wunderground v.1.15,2013-02-01 07:30:00,
2013-02-01 02:35:00,11.0,8.4,30.09,WNW,283,7.0,10.0,89,0.00,,,0.00,Wunderground v.1.15,2013-02-01 07:35:00,
2013-02-01 02:40:00,11.0,8.4,30.09,West,269,7.0,8.0,89,0.00,,,0.00,Wunderground v.1.15,2013-02-01 07:40:00,
2013-02-01 02:45:00,11.0,8.1,30.09,WNW,301,8.0,8.0,88,0.00,,,0.00,Wunderground v.1.15,2013-02-01 07:45:00,
2013-02-01 02:50:00,11.0,8.1,30.10,WNW,301,8.0,8.0,88,0.00,,,0.00,Wunderground v.1.15,2013-02-01 07:50:00,
2013-02-01 02:55:00,11.0,8.1,30.10,West,276,8.0,8.0,88,0.00,,,0.00,Wunderground v.1.15,2013-02-01 07:55:00,
2013-02-01 03:00:00,11.0,8.1,30.10,WSW,239,8.0,8.0,88,0.00,,,0.00,Wunderground v.1.15,2013-02-01 08:00:00,
2013-02-01 03:10:00,11.0,7.9,30.11,NW,307,9.0,10.0,87,0.00,,,0.00,Wunderground v.1.15,2013-02-01 08:10:00,
2013-02-01 03:15:00,10.9,7.8,30.11,NW,309,11.0,11.0,87,0.00,,,0.00,Wunderground v.1.15,2013-02-01 08:15:00,
2013-02-01 03:20:00,10.9,7.8,30.11,West,281,11.0,11.0,87,0.00,,,0.00,Wunderground v.1.15,2013-02-01 08:20:00,
2013-02-01 03:25:00,10.8,7.7,30.11,NW,316,9.0,11.0,87,0.00,,,0.00,Wunderground v.1.15,2013-02-01 08:25:00,
2013-02-01 03:35:00,10.7,7.3,30.12,West,264,10.0,10.0,86,0.00,,,0.00,Wunderground v.1.15,2013-02-01 08:35:00,
2013-02-01 03:40:00,10.7,7.3,30.12,WNW,294,10.0,10.0,86,0.00,,,0.00,Wunderground v.1.15,2013-02-01 08:40:00,
2013-02-01 03:45:00,10.6,7.5,30.12,WNW,294,8.0,12.0,87,0.00,,,0.00,Wunderground v.1.15,2013-02-01 08:45:00,
2013-02-01 03:50:00,10.5,7.4,30.13,WNW,294,8.0,12.0,87,0.00,,,0.00,Wunderground v.1.15,2013-02-01 08:50:00,
2013-02-01 03:55:00,10.4,7.3,30.13,WNW,285,8.0,12.0,87,0.00,,,0.00,Wunderground v.1.15,2013-02-01 08:55:00,
2013-02-01 04:00:00,10.4,7.6,30.14,WSW,253,8.0,8.0,88,0.00,,,0.00,Wunderground v.1.15,2013-02-01 09:00:00,
2013-02-01 04:10:00,10.4,7.3,30.14,West,266,9.0,9.0,87,0.00,,,0.00,Wunderground v.1.15,2013-02-01 09:10:00,
2013-02-01 04:15:00,10.4,7.0,30.14,SW,225,9.0,12.0,86,0.00,,,0.00,Wunderground v.1.15,2013-02-01 09:15:00,
2013-02-01 04:20:00,10.3,6.9,30.14,WSW,252,9.0,12.0,86,0.00,,,0.00,Wunderground v.1.15,2013-02-01 09:20:00,
2013-02-01 04:25:00,10.3,6.9,30.15,WNW,288,8.0,12.0,86,0.00,,,0.00,Wunderground v.1.15,2013-02-01 09:25:00,
2013-02-01 04:30:00,10.2,6.8,30.15,WSW,246,8.0,11.0,86,0.00,,,0.00,Wunderground v.1.15,2013-02-01 09:30:00,
2013-02-01 04:40:00,10.2,6.8,30.16,West,273,9.0,9.0,86,0.00,,,0.00,Wunderground v.1.15,2013-02-01 09:40:00,
2013-02-01 04:45:00,10.2,7.1,30.16,WNW,293,7.0,9.0,87,0.00,,,0.00,Wunderground v.1.15,2013-02-01 09:45:00,
2013-02-01 04:50:00,10.1,7.0,30.16,WNW,285,6.0,8.0,87,0.00,,,0.00,Wunderground v.1.15,2013-02-01 09:50:00,
2013-02-01 04:55:00,10.1,7.0,30.16,SW,224,6.0,8.0,87,0.00,,,0.00,Wunderground v.1.15,2013-02-01 09:55:00,
2013-02-01 05:00:00,9.5,6.4,30.17,SW,236,6.0,6.0,87,0.00,,,0.00,Wunderground v.1.15,2013-02-01 10:00:00,
2013-02-01 05:10:00,8.3,5.2,30.17,West,278,6.0,11.0,87,0.00,,,0.00,Wunderground v.1.15,2013-02-01 10:10:00,
2013-02-01 05:15:00,7.8,4.7,30.18,SW,224,7.0,11.0,87,0.00,,,0.00,Wunderground v.1.15,2013-02-01 10:15:00,
2013-02-01 05:20:00,7.5,4.7,30.18,WNW,284,7.0,9.0,88,0.00,,,0.00,Wunderground v.1.15,2013-02-01 10:20:00,
2013-02-01 05:25:00,7.3,4.5,30.18,WSW,252,7.0,12.0,88,0.00,,,0.00,Wunderground v.1.15,2013-02-01 10:25:00,
2013-02-01 05:30:00,7.2,4.4,30.18,WNW,293,7.0,10.0,88,0.00,,,0.00,Wunderground v.1.15,2013-02-01 10:30:00,
2013-02-01 05:35:00,7.1,4.3,30.19,WNW,286,7.0,10.0,88,0.00,,,0.00,Wunderground v.1.15,2013-02-01 10:35:00,
2013-02-01 05:40:00,7.0,4.4,30.19,SW,221,7.0,13.0,89,0.00,,,0.00,Wunderground v.1.15,2013-02-01 10:40:00,
2013-02-01 05:45:00,6.9,4.3,30.19,WNW,288,8.0,13.0,89,0.00,,,0.00,Wunderground v.1.15,2013-02-01 10:45:00,
2013-02-01 05:50:00,6.7,3.9,30.20,WSW,249,9.0,9.0,88,0.00,,,0.00,Wunderground v.1.15,2013-02-01 10:50:00,
2013-02-01 06:00:00,6.4,3.6,30.21,WSW,248,8.0,9.0,88,0.00,,,0.00,Wunderground v.1.15,2013-02-01 11:00:00,
2013-02-01 06:10:00,6.0,3.2,30.21,West,281,8.0,8.0,88,0.00,,,0.00,Wunderground v.1.15,2013-02-01 11:10:00,
2013-02-01 06:15:00,5.7,2.9,30.21,SSW,212,9.0,9.0,88,0.00,,,0.00,Wunderground v.1.15,2013-02-01 11:15:00,
2013-02-01 06:20:00,5.5,2.7,30.22,WSW,238,8.0,8.0,88,0.00,,,0.00,Wunderground v.1.15,2013-02-01 11:20:00,
2013-02-01 06:30:00,5.2,2.4,30.23,SW,233,6.0,12.0,88,0.00,,,0.00,Wunderground v.1.15,2013-02-01 11:30:00,
2013-02-01 06:35:00,5.2,2.7,30.23,WSW,242,7.0,12.0,89,0.00,,,0.00,Wunderground v.1.15,2013-02-01 11:35:00,
2013-02-01 06:40:00,5.2,2.4,30.23,WNW,298,8.0,11.0,88,0.00,,,0.00,Wunderground v.1.15,2013-02-01 11:40:00,
2013-02-01 06:45:00,5.2,2.4,30.23,South,177,8.0,11.0,88,0.00,,,0.00,Wunderground v.1.15,2013-02-01 11:45:00,
2013-02-01 06:50:00,5.1,2.3,30.23,SW,214,8.0,8.0,88,0.00,,,0.00,Wunderground v.1.15,2013-02-01 11:50:00,
2013-02-01 06:55:00,5.0,2.2,30.24,SW,217,8.0,11.0,88,0.00,,,0.00,Wunderground v.1.15,2013-02-01 11:55:00,
2013-02-01 07:00:00,4.8,2.0,30.24,West,259,8.0,10.0,88,0.00,,,0.00,Wunderground v.1.15,2013-02-01 12:00:00,
2013-02-01 07:10:00,4.6,1.8,30.25,West,269,6.0,6.0,88,0.00,,,0.00,Wunderground v.1.15,2013-02-01 12:10:00,
2013-02-01 07:20:00,4.5,1.7,30.25,West,276,6.0,6.0,88,0.00,,,0.00,Wunderground v.1.15,2013-02-01 12:20:00,
2013-02-01 07:25:00,4.5,1.7,30.25,WSW,249,5.0,6.0,88,0.00,,,0.00,Wunderground v.1.15,2013-02-01 12:25:00,
2013-02-01 07:30:00,4.6,1.8,30.26,West,260,5.0,5.0,88,0.00,,,0.00,Wunderground v.1.15,2013-02-01 12:30:00,
2013-02-01 07:35:00,4.6,1.8,30.26,West,259,5.0,6.0,88,0.00,,,0.00,Wunderground v.1.15,2013-02-01 12:35:00,
2013-02-01 07:40:00,4.6,1.8,30.26,SW,222,6.0,10.0,88,0.00,,,0.00,Wunderground v.1.15,2013-02-01 12:40:00,
2013-02-01 07:45:00,4.5,1.7,30.25,SSW,203,7.0,10.0,88,0.00,,,0.00,Wunderground v.1.15,2013-02-01 12:45:00,
2013-02-01 07:55:00,4.2,1.2,30.26,West,260,6.0,10.0,87,0.00,,,0.00,Wunderground v.1.15,2013-02-01 12:55:00,
2013-02-01 08:00:00,4.1,1.1,30.26,SW,236,6.0,7.0,87,0.00,,,0.00,Wunderground v.1.15,2013-02-01 13:00:00,
2013-02-01 08:10:00,4.1,1.1,30.26,NW,308,7.0,10.0,87,0.00,,,0.00,Wunderground v.1.15,2013-02-01 13:10:00,
2013-02-01 08:15:00,4.2,1.2,30.27,WSW,252,6.0,10.0,87,0.00,,,0.00,Wunderground v.1.15,2013-02-01 13:15:00,
2013-02-01 08:25:00,4.3,1.3,30.27,West,260,6.0,8.0,87,0.00,,,0.00,Wunderground v.1.15,2013-02-01 13:25:00,
2013-02-01 08:30:00,4.3,1.3,30.28,SSE,165,6.0,6.0,87,0.00,,,0.00,Wunderground v.1.15,2013-02-01 13:30:00,
2013-02-01 08:35:00,4.3,1.0,30.28,West,271,5.0,8.0,86,0.00,,,0.00,Wunderground v.1.15,2013-02-01 13:35:00,
2013-02-01 08:40:00,4.4,1.1,30.28,WSW,250,6.0,9.0,86,0.00,,,0.00,Wunderground v.1.15,2013-02-01 13:40:00,
2013-02-01 08:45:00,4.5,1.2,30.28,SSW,207,7.0,9.0,86,0.00,,,0.00,Wunderground v.1.15,2013-02-01 13:45:00,
2013-02-01 08:50:00,4.6,1.3,30.28,SSW,200,6.0,6.0,86,0.00,,,0.00,Wunderground v.1.15,2013-02-01 13:50:00,
2013-02-01 09:00:00,4.9,1.4,30.29,West,262,6.0,10.0,85,0.00,,,0.00,Wunderground v.1.15,2013-02-01 14:00:00,
2013-02-01 09:10:00,5.1,1.6,30.30,WNW,295,6.0,7.0,85,0.00,,,0.00,Wunderground v.1.15,2013-02-01 14:10:00,
2013-02-01 09:15:00,5.3,1.8,30.30,WSW,256,6.0,9.0,85,0.00,,,0.00,Wunderground v.1.15,2013-02-01 14:15:00,
2013-02-01 09:20:00,5.6,2.1,30.30,WNW,287,6.0,6.0,85,0.00,,,0.00,Wunderground v.1.15,2013-02-01 14:20:00,
2013-02-01 09:30:00,6.3,2.8,30.30,WNW,286,5.0,6.0,85,0.00,,,0.00,Wunderground v.1.15,2013-02-01 14:30:00,
2013-02-01 09:35:00,6.7,2.9,30.31,SW,219,5.0,6.0,84,0.00,,,0.00,Wunderground v.1.15,2013-02-01 14:35:00,
2013-02-01 09:40:00,7.0,3.2,30.31,SW,232,4.0,8.0,84,0.00,,,0.00,Wunderground v.1.15,2013-02-01 14:40:00,
2013-02-01 09:45:00,7.2,3.1,30.31,WSW,253,4.0,9.0,83,0.00,,,0.00,Wunderground v.1.15,2013-02-01 14:45:00,
2013-02-01 09:50:00,7.1,2.8,30.31,WSW,255,6.0,10.0,82,0.00,,,0.00,Wunderground v.1.15,2013-02-01 14:50:00,
2013-02-01 09:55:00,7.0,2.7,30.32,West,263,6.0,10.0,82,0.00,,,0.00,Wunderground v.1.15,2013-02-01 14:55:00,
2013-02-01 10:00:00,6.8,2.5,30.32,West,280,6.0,8.0,82,0.00,,,0.00,Wunderground v.1.15,2013-02-01 15:00:00,
2013-02-01 10:10:00,6.7,2.1,30.32,West,278,7.0,7.0,81,0.00,,,0.00,Wunderground v.1.15,2013-02-01 15:10:00,
2013-02-01 10:15:00,6.7,2.4,30.32,SW,233,6.0,7.0,82,0.00,,,0.00,Wunderground v.1.15,2013-02-01 15:15:00,
2013-02-01 10:20:00,6.7,2.1,30.32,SW,233,6.0,6.0,81,0.00,,,0.00,Wunderground v.1.15,2013-02-01 15:20:00,
2013-02-01 10:25:00,6.6,2.0,30.33,WNW,291,6.0,6.0,81,0.00,,,0.00,Wunderground v.1.15,2013-02-01 15:25:00,
2013-02-01 10:30:00,6.7,2.1,30.33,WSW,245,5.0,7.0,81,0.00,,,0.00,Wunderground v.1.15,2013-02-01 15:30:00,
2013-02-01 10:35:00,7.0,2.1,30.33,SW,222,4.0,7.0,80,0.00,,,0.00,Wunderground v.1.15,2013-02-01 15:35:00,
2013-02-01 10:40:00,6.9,1.8,30.33,SW,217,5.0,5.0,79,0.00,,,0.00,Wunderground v.1.15,2013-02-01 15:40:00,
2013-02-01 10:45:00,7.0,1.9,30.34,WSW,238,7.0,7.0,79,0.00,,,0.00,Wunderground v.1.15,2013-02-01 15:45:00,
2013-02-01 10:50:00,6.6,1.5,30.34,WNW,296,8.0,8.0,79,0.00,,,0.00,Wunderground v.1.15,2013-02-01 15:50:00,
2013-02-01 10:55:00,6.5,1.4,30.34,NW,304,9.0,10.0,79,0.00,,,0.00,Wunderground v.1.15,2013-02-01 15:55:00,
2013-02-01 11:00:00,6.5,1.4,30.34,WSW,240,9.0,9.0,79,0.00,,,0.00,Wunderground v.1.15,2013-02-01 16:00:00,
2013-02-01 11:10:00,6.8,1.7,30.35,SSW,200,8.0,8.0,79,0.00,,,0.00,Wunderground v.1.15,2013-02-01 16:10:00,
2013-02-01 11:15:00,7.1,2.0,30.35,SW,226,7.0,11.0,79,0.00,,,0.00,Wunderground v.1.15,2013-02-01 16:15:00,
2013-02-01 11:20:00,7.1,1.7,30.35,SW,219,9.0,9.0,78,0.00,,,0.00,Wunderground v.1.15,2013-02-01 16:20:00,
2013-02-01 11:25:00,7.4,2.3,30.35,South,172,8.0,9.0,79,0.00,,,0.00,Wunderground v.1.15,2013-02-01 16:25:00,
2013-02-01 11:30:00,7.7,2.3,30.35,WSW,250,6.0,11.0,78,0.00,,,0.00,Wunderground v.1.15,2013-02-01 16:30:00,
2013-02-01 11:40:00,8.0,2.3,30.35,West,269,7.0,7.0,77,0.00,,,0.00,Wunderground v.1.15,2013-02-01 16:40:00,
2013-02-01 11:45:00,8.0,2.6,30.35,WNW,294,7.0,7.0,78,0.00,,,0.00,Wunderground v.1.15,2013-02-01 16:45:00,
2013-02-01 11:50:00,8.4,2.9,30.35,West,261,6.0,6.0,78,0.00,,,0.00,Wunderground v.1.15,2013-02-01 16:50:00,
2013-02-01 11:55:00,8.5,2.8,30.35,SW,219,6.0,6.0,77,0.00,,,0.00,Wunderground v.1.15,2013-02-01 16:55:00,
2013-02-01 12:00:00,8.7,3.0,30.35,South,169,7.0,8.0,77,0.00,,,0.00,Wunderground v.1.15,2013-02-01 17:00:00,
2013-02-01 12:10:00,8.9,3.2,30.35,West,262,7.0,7.0,77,0.00,,,0.00,Wunderground v.1.15,2013-02-01 17:10:00,
2013-02-01 12:15:00,9.1,3.4,30.35,WNW,301,6.0,7.0,77,0.00,,,0.00,Wunderground v.1.15,2013-02-01 17:15:00,
2013-02-01 12:20:00,9.1,2.8,30.35,SSW,201,6.0,6.0,75,0.00,,,0.00,Wunderground v.1.15,2013-02-01 17:20:00,
2013-02-01 12:25:00,9.2,3.2,30.35,West,269,7.0,7.0,76,0.00,,,0.00,Wunderground v.1.15,2013-02-01 17:25:00,
2013-02-01 12:30:00,9.2,3.4,30.35,WSW,243,6.0,6.0,77,0.00,,,0.00,Wunderground v.1.15,2013-02-01 17:30:00,
2013-02-01 12:35:00,9.5,3.5,30.35,WNW,301,5.0,6.0,76,0.00,,,0.00,Wunderground v.1.15,2013-02-01 17:35:00,
2013-02-01 12:45:00,9.4,3.1,30.35,West,266,7.0,8.0,75,0.00,,,0.00,Wunderground v.1.15,2013-02-01 17:45:00,
2013-02-01 12:50:00,9.5,2.9,30.35,SSW,207,7.0,7.0,74,0.00,,,0.00,Wunderground v.1.15,2013-02-01 17:50:00,
2013-02-01 12:55:00,9.5,2.9,30.35,WSW,238,7.0,14.0,74,0.00,,,0.00,Wunderground v.1.15,2013-02-01 17:55:00,
2013-02-01 13:00:00,9.1,2.5,30.35,SW,236,8.0,8.0,74,0.00,,,0.00,Wunderground v.1.15,2013-02-01 18:00:00,
2013-02-01 13:10:00,9.3,2.7,30.35,WNW,298,8.0,12.0,74,0.00,,,0.00,Wunderground v.1.15,2013-02-01 18:10:00,
2013-02-01 13:15:00,9.7,3.1,30.36,SW,217,8.0,12.0,74,0.00,,,0.00,Wunderground v.1.15,2013-02-01 18:15:00,
2013-02-01 13:20:00,10.0,3.1,30.35,WSW,242,7.0,8.0,73,0.00,,,0.00,Wunderground v.1.15,2013-02-01 18:20:00,
2013-02-01 13:25:00,10.6,3.3,30.35,WSW,239,7.0,8.0,72,0.00,,,0.00,Wunderground v.1.15,2013-02-01 18:25:00,
2013-02-01 13:30:00,10.4,2.5,30.35,South,188,8.0,8.0,70,0.00,,,0.00,Wunderground v.1.15,2013-02-01 18:30:00,
2013-02-01 13:35:00,10.4,3.2,30.35,West,274,9.0,9.0,72,0.00,,,0.00,Wunderground v.1.15,2013-02-01 18:35:00,
2013-02-01 13:40:00,10.1,2.6,30.35,WSW,255,8.0,8.0,71,0.00,,,0.00,Wunderground v.1.15,2013-02-01 18:40:00,
2013-02-01 13:45:00,10.0,2.5,30.35,West,261,8.0,9.0,71,0.00,,,0.00,Wunderground v.1.15,2013-02-01 18:45:00,
2013-02-01 13:50:00,10.0,2.5,30.35,West,259,9.0,11.0,71,0.00,,,0.00,Wunderground v.1.15,2013-02-01 18:50:00,
2013-02-01 13:55:00,9.8,2.3,30.35,West,266,9.0,11.0,71,0.00,,,0.00,Wunderground v.1.15,2013-02-01 18:55:00,
2013-02-01 14:00:00,9.6,1.8,30.35,SW,217,8.0,9.0,70,0.00,,,0.00,Wunderground v.1.15,2013-02-01 19:00:00,
2013-02-01 14:10:00,9.7,1.9,30.35,SW,233,7.0,7.0,70,0.00,,,0.00,Wunderground v.1.15,2013-02-01 19:10:00,
2013-02-01 14:15:00,10.2,2.7,30.35,SSW,200,6.0,9.0,71,0.00,,,0.00,Wunderground v.1.15,2013-02-01 19:15:00,
2013-02-01 14:20:00,10.7,2.5,30.35,WSW,240,6.0,10.0,69,0.00,,,0.00,Wunderground v.1.15,2013-02-01 19:20:00,
2013-02-01 14:25:00,10.6,1.5,30.35,SW,219,7.0,10.0,66,0.00,,,0.00,Wunderground v.1.15,2013-02-01 19:25:00,
2013-02-01 14:30:00,10.5,1.4,30.35,WSW,239,8.0,11.0,66,0.00,,,0.00,Wunderground v.1.15,2013-02-01 19:30:00,
2013-02-01 14:35:00,10.5,1.7,30.35,SW,224,7.0,11.0,67,0.00,,,0.00,Wunderground v.1.15,2013-02-01 19:35:00,
2013-02-01 14:40:00,10.2,0.8,30.35,SSW,211,9.0,9.0,65,0.00,,,0.00,Wunderground v.1.15,2013-02-01 19:40:00,
2013-02-01 14:50:00,9.8,0.7,30.35,SSW,208,8.0,8.0,66,0.00,,,0.00,Wunderground v.1.15,2013-02-01 19:50:00,
2013-02-01 14:55:00,9.9,0.8,30.35,SW,232,8.0,8.0,66,0.00,,,0.00,Wunderground v.1.15,2013-02-01 19:55:00,
2013-02-01 15:00:00,9.9,0.8,30.35,SW,225,7.0,7.0,66,0.00,,,0.00,Wunderground v.1.15,2013-02-01 20:00:00,
2013-02-01 15:10:00,9.8,0.7,30.35,WSW,245,6.0,14.0,66,0.00,,,0.00,Wunderground v.1.15,2013-02-01 20:10:00,
2013-02-01 15:15:00,9.9,1.1,30.35,SW,233,7.0,14.0,67,0.00,,,0.00,Wunderground v.1.15,2013-02-01 20:15:00,
2013-02-01 15:25:00,9.9,1.4,30.35,SW,231,7.0,8.0,68,0.00,,,0.00,Wunderground v.1.15,2013-02-01 20:25:00,
2013-02-01 15:30:00,9.9,1.4,30.35,SW,215,6.0,8.0,68,0.00,,,0.00,Wunderground v.1.15,2013-02-01 20:30:00,
2013-02-01 15:35:00,9.5,1.1,30.35,WSW,238,6.0,8.0,68,0.00,,,0.00,Wunderground v.1.15,2013-02-01 20:35:00,
2013-02-01 15:40:00,9.4,1.0,30.35,SW,214,5.0,5.0,68,0.00,,,0.00,Wunderground v.1.15,2013-02-01 20:40:00,
2013-02-01 15:45:00,9.9,1.8,30.35,SW,231,4.0,5.0,69,0.00,,,0.00,Wunderground v.1.15,2013-02-01 20:45:00,
2013-02-01 15:55:00,9.5,1.1,30.35,WSW,246,6.0,6.0,68,0.00,,,0.00,Wunderground v.1.15,2013-02-01 20:55:00,
2013-02-01 16:00:00,9.4,1.3,30.35,SSW,211,6.0,8.0,69,0.00,,,0.00,Wunderground v.1.15,2013-02-01 21:00:00,
2013-02-01 16:10:00,9.8,1.7,30.35,NW,314,5.0,5.0,69,0.00,,,0.00,Wunderground v.1.15,2013-02-01 21:10:00,
2013-02-01 16:15:00,10.0,2.2,30.35,West,261,5.0,6.0,70,0.00,,,0.00,Wunderground v.1.15,2013-02-01 21:15:00,
2013-02-01 16:20:00,9.7,1.6,30.35,WNW,291,6.0,9.0,69,0.00,,,0.00,Wunderground v.1.15,2013-02-01 21:20:00,
2013-02-01 16:30:00,9.5,1.7,30.35,SW,233,6.0,6.0,70,0.00,,,0.00,Wunderground v.1.15,2013-02-01 21:30:00,
2013-02-01 16:35:00,9.9,2.1,30.34,WSW,249,5.0,6.0,70,0.00,,,0.00,Wunderground v.1.15,2013-02-01 21:35:00,
2013-02-01 16:40:00,9.6,1.5,30.34,SW,226,5.0,6.0,69,0.00,,,0.00,Wunderground v.1.15,2013-02-01 21:40:00,
2013-02-01 16:45:00,9.3,1.5,30.34,West,280,5.0,6.0,70,0.00,,,0.00,Wunderground v.1.15,2013-02-01 21:45:00,
2013-02-01 16:50:00,9.0,1.5,30.34,WSW,255,4.0,4.0,71,0.00,,,0.00,Wunderground v.1.15,2013-02-01 21:50:00,
2013-02-01 17:00:00,9.2,2.0,30.34,West,259,3.0,3.0,72,0.00,,,0.00,Wunderground v.1.15,2013-02-01 22:00:00,
2013-02-01 17:10:00,9.5,2.3,30.34,West,278,3.0,3.0,72,0.00,,,0.00,Wunderground v.1.15,2013-02-01 22:10:00,
2013-02-01 17:15:00,9.6,2.1,30.34,WSW,242,3.0,3.0,71,0.00,,,0.00,Wunderground v.1.15,2013-02-01 22:15:00,
2013-02-01 17:20:00,9.7,2.2,30.33,WNW,284,3.0,3.0,71,0.00,,,0.00,Wunderground v.1.15,2013-02-01 22:20:00,
2013-02-01 17:25:00,9.7,2.2,30.33,West,281,3.0,3.0,71,0.00,,,0.00,Wunderground v.1.15,2013-02-01 22:25:00,
2013-02-01 17:35:00,9.3,1.8,30.33,West,277,2.0,3.0,71,0.00,,,0.00,Wunderground v.1.15,2013-02-01 22:35:00,
2013-02-01 17:40:00,9.2,2.0,30.33,WSW,258,2.0,5.0,72,0.00,,,0.00,Wunderground v.1.15,2013-02-01 22:40:00,
2013-02-01 17:45:00,9.0,1.8,30.33,WSW,248,2.0,5.0,72,0.00,,,0.00,Wunderground v.1.15,2013-02-01 22:45:00,
2013-02-01 17:50:00,8.7,1.8,30.33,West,264,2.0,3.0,73,0.00,,,0.00,Wunderground v.1.15,2013-02-01 22:50:00,
2013-02-01 17:55:00,8.2,1.3,30.33,SSW,198,1.0,3.0,73,0.00,,,0.00,Wunderground v.1.15,2013-02-01 22:55:00,
2013-02-01 18:00:00,7.7,1.1,30.33,SW,217,1.0,1.0,74,0.00,,,0.00,Wunderground v.1.15,2013-02-01 23:00:00,
2013-02-01 18:10:00,7.2,0.9,30.33,WSW,256,1.0,1.0,75,0.00,,,0.00,Wunderground v.1.15,2013-02-01 23:10:00,
2013-02-01 18:15:00,7.0,1.0,30.33,West,260,0.0,1.0,76,0.00,,,0.00,Wunderground v.1.15,2013-02-01 23:15:00,
2013-02-01 18:20:00,6.9,1.2,30.33,WSW,245,0.0,0.0,77,0.00,,,0.00,Wunderground v.1.15,2013-02-01 23:20:00,
2013-02-01 18:25:00,6.7,1.0,30.33,West,259,0.0,0.0,77,0.00,,,0.00,Wunderground v.1.15,2013-02-01 23:25:00,
2013-02-01 18:30:00,6.6,1.2,30.33,WSW,248,0.0,0.0,78,0.00,,,0.00,Wunderground v.1.15,2013-02-01 23:30:00,
2013-02-01 18:35:00,6.6,1.2,30.33,West,262,0.0,0.0,78,0.00,,,0.00,Wunderground v.1.15,2013-02-01 23:35:00,
2013-02-01 18:40:00,6.4,1.0,30.33,West,264,0.0,0.0,78,0.00,,,0.00,Wunderground v.1.15,2013-02-01 23:40:00,
2013-02-01 18:45:00,6.3,1.2,30.33,West,263,0.0,0.0,79,0.00,,,0.00,Wunderground v.1.15,2013-02-01 23:45:00,
2013-02-01 18:50:00,6.2,1.1,30.33,WNW,285,0.0,0.0,79,0.00,,,0.00,Wunderground v.1.15,2013-02-01 23:50:00,
2013-02-01 18:55:00,6.1,1.0,30.33,West,278,1.0,1.0,79,0.00,,,0.00,Wunderground v.1.15,2013-02-01 23:55:00,
2013-02-01 19:00:00,6.1,1.0,30.33,West,262,1.0,1.0,79,0.00,,,0.00,Wunderground v.1.15,2013-02-02 00:00:00,
2013-02-01 19:10:00,6.1,1.0,30.33,WNW,288,1.0,1.0,79,0.00,,,0.00,Wunderground v.1.15,2013-02-02 00:10:00,
2013-02-01 19:15:00,6.1,1.0,30.33,WSW,248,1.0,1.0,79,0.00,,,0.00,Wunderground v.1.15,2013-02-02 00:15:00,
2013-02-01 19:20:00,5.9,0.8,30.33,WSW,252,0.0,0.0,79,0.00,,,0.00,Wunderground v.1.15,2013-02-02 00:20:00,
2013-02-01 19:25:00,5.9,0.8,30.33,WSW,250,0.0,0.0,79,0.00,,,0.00,Wunderground v.1.15,2013-02-02 00:25:00,
2013-02-01 19:30:00,5.8,1.0,30.33,WSW,250,0.0,0.0,80,0.00,,,0.00,Wunderground v.1.15,2013-02-02 00:30:00,
2013-02-01 19:40:00,5.2,0.4,30.33,SW,231,0.0,0.0,80,0.00,,,0.00,Wunderground v.1.15,2013-02-02 00:40:00,
2013-02-01 19:45:00,4.8,0.2,30.33,SW,225,0.0,0.0,81,0.00,,,0.00,Wunderground v.1.15,2013-02-02 00:45:00,
2013-02-01 19:50:00,4.7,0.4,30.33,SW,225,0.0,0.0,82,0.00,,,0.00,Wunderground v.1.15,2013-02-02 00:50:00,
2013-02-01 19:55:00,4.8,0.5,30.33,SW,225,0.0,0.0,82,0.00,,,0.00,Wunderground v.1.15,2013-02-02 00:55:00,
2013-02-01 20:00:00,4.8,0.5,30.32,SW,225,0.0,0.0,82,0.00,,,0.00,Wunderground v.1.15,2013-02-02 01:00:00,
2013-02-01 20:10:00,4.6,0.6,30.32,SW,225,0.0,0.0,83,0.00,,,0.00,Wunderground v.1.15,2013-02-02 01:10:00,
2013-02-01 20:15:00,4.1,-0.2,30.32,SW,225,0.0,0.0,82,0.00,,,0.00,Wunderground v.1.15,2013-02-02 01:15:00,
2013-02-01 20:20:00,3.8,-0.2,30.32,SW,225,0.0,0.0,83,0.00,,,0.00,Wunderground v.1.15,2013-02-02 01:20:00,
2013-02-01 20:25:00,3.8,0.0,30.32,SW,225,0.0,0.0,84,0.00,,,0.00,Wunderground v.1.15,2013-02-02 01:25:00,
2013-02-01 20:30:00,3.9,0.1,30.32,WSW,246,0.0,0.0,84,0.00,,,0.00,Wunderground v.1.15,2013-02-02 01:30:00,
2013-02-01 20:35:00,3.9,0.1,30.31,WSW,242,0.0,0.0,84,0.00,,,0.00,Wunderground v.1.15,2013-02-02 01:35:00,
2013-02-01 20:45:00,4.1,0.6,30.32,WSW,242,0.0,0.0,85,0.00,,,0.00,Wunderground v.1.15,2013-02-02 01:45:00,
2013-02-01 20:50:00,4.1,0.6,30.32,WSW,242,0.0,0.0,85,0.00,,,0.00,Wunderground v.1.15,2013-02-02 01:50:00,
2013-02-01 20:55:00,4.1,0.6,30.31,WSW,241,0.0,0.0,85,0.00,,,0.00,Wunderground v.1.15,2013-02-02 01:55:00,
2013-02-01 21:00:00,4.3,0.8,30.31,SW,225,0.0,0.0,85,0.00,,,0.00,Wunderground v.1.15,2013-02-02 02:00:00,
2013-02-01 21:10:00,4.6,1.1,30.31,SW,232,0.0,1.0,85,0.00,,,0.00,Wunderground v.1.15,2013-02-02 02:10:00,
2013-02-01 21:20:00,4.9,1.1,30.31,SW,236,1.0,1.0,84,0.00,,,0.00,Wunderground v.1.15,2013-02-02 02:20:00,
2013-02-01 21:25:00,5.0,1.2,30.31,SSW,213,1.0,1.0,84,0.00,,,0.00,Wunderground v.1.15,2013-02-02 02:25:00,
2013-02-01 21:30:00,5.0,1.2,30.31,SW,225,1.0,1.0,84,0.00,,,0.00,Wunderground v.1.15,2013-02-02 02:30:00,
2013-02-01 21:35:00,5.1,1.3,30.31,SSW,212,1.0,1.0,84,0.00,,,0.00,Wunderground v.1.15,2013-02-02 02:35:00,
2013-02-01 21:40:00,5.4,1.9,30.31,SW,221,1.0,1.0,85,0.00,,,0.00,Wunderground v.1.15,2013-02-02 02:40:00,
2013-02-01 21:50:00,5.6,1.8,30.30,SW,221,2.0,2.0,84,0.00,,,0.00,Wunderground v.1.15,2013-02-02 02:50:00,
2013-02-01 21:55:00,5.6,1.8,30.30,SW,217,1.0,2.0,84,0.00,,,0.00,Wunderground v.1.15,2013-02-02 02:55:00,
2013-02-01 22:00:00,5.5,1.7,30.30,SW,218,0.0,0.0,84,0.00,,,0.00,Wunderground v.1.15,2013-02-02 03:00:00,
2013-02-01 22:10:00,5.2,1.4,30.30,SW,217,0.0,0.0,84,0.00,,,0.00,Wunderground v.1.15,2013-02-02 03:10:00,
2013-02-01 22:15:00,5.2,1.7,30.30,SW,232,0.0,0.0,85,0.00,,,0.00,Wunderground v.1.15,2013-02-02 03:15:00,
2013-02-01 22:20:00,5.2,1.7,30.30,SW,225,0.0,0.0,85,0.00,,,0.00,Wunderground v.1.15,2013-02-02 03:20:00,
2013-02-01 22:25:00,5.1,1.6,30.30,SW,231,0.0,0.0,85,0.00,,,0.00,Wunderground v.1.15,2013-02-02 03:25:00,
2013-02-01 22:35:00,5.1,1.6,30.29,SW,229,0.0,0.0,85,0.00,,,0.00,Wunderground v.1.15,2013-02-02 03:35:00,
2013-02-01 22:40:00,5.1,1.8,30.29,SW,226,0.0,0.0,86,0.00,,,0.00,Wunderground v.1.15,2013-02-02 03:40:00,
2013-02-01 22:45:00,5.3,1.8,30.29,SW,221,0.0,0.0,85,0.00,,,0.00,Wunderground v.1.15,2013-02-02 03:45:00,
2013-02-01 22:50:00,5.3,1.8,30.29,SW,219,0.0,0.0,85,0.00,,,0.00,Wunderground v.1.15,2013-02-02 03:50:00,
2013-02-01 22:55:00,5.3,2.0,30.29,SW,219,0.0,0.0,86,0.00,,,0.00,Wunderground v.1.15,2013-02-02 03:55:00,
2013-02-01 23:00:00,5.4,2.1,30.28,SW,219,0.0,0.0,86,0.00,,,0.00,Wunderground v.1.15,2013-02-02 04:00:00,
2013-02-01 23:10:00,5.4,2.1,30.28,SW,217,0.0,0.0,86,0.00,,,0.00,Wunderground v.1.15,2013-02-02 04:10:00,
2013-02-01 23:15:00,5.3,2.0,30.28,SW,217,0.0,0.0,86,0.00,,,0.00,Wunderground v.1.15,2013-02-02 04:15:00,
2013-02-01 23:25:00,5.2,1.9,30.28,SW,221,0.0,0.0,86,0.00,,,0.00,Wunderground v.1.15,2013-02-02 04:25:00,
2013-02-01 23:30:00,5.2,2.2,30.28,SW,226,0.0,1.0,87,0.00,,,0.00,Wunderground v.1.15,2013-02-02 04:30:00,
2013-02-01 23:35:00,5.4,2.4,30.28,SW,235,0.0,1.0,87,0.00,,,0.00,Wunderground v.1.15,2013-02-02 04:35:00,
2013-02-01 23:40:00,5.6,2.6,30.28,WSW,252,0.0,0.0,87,0.00,,,0.00,Wunderground v.1.15,2013-02-02 04:40:00,
2013-02-01 23:45:00,5.8,2.8,30.28,SW,229,1.0,3.0,87,0.00,,,0.00,Wunderground v.1.15,2013-02-02 04:45:00,
2013-02-01 23:50:00,6.0,3.0,30.28,SW,228,1.0,1.0,87,0.00,,,0.00,Wunderground v.1.15,2013-02-02 04:50:00,